Terminal Aerodrome Forecast
Issued by NWS Sterling, VA

Home | Current Version | Previous Version | Text Only | Print | Product List | Glossary On
Versions: 1 2 3 4 5 6 7 8 9 10 11 12 13 14
000
FTUS41 KLWX 240000 AAA
TAFCHO
TAF AMD
KCHO 240023Z 2400/2424 32006KT P6SM SKC
     FM240600 VRB04KT P6SM FEW250
     FM241400 29012KT P6SM FEW250
     FM242000 24004KT P6SM SCT250
     FM242300 17004KT P6SM SCT250=

USA.gov is the U.S. government's official web portal to all federal, state and local government web resources and services.